Latest Weather Observations for West Wyalong

IDN60801

Issued at 8:12 am EDT Saturday 14 December 2019 (issued every 10 minutes, with the page automatically refreshed every 10 minutes)

About weather observations | Map of weather stations | Latest weather observations for NSW | Other Formats
Station Details ID: 050017 Name: WEST WYALONG AIRPORT AWS Lat: -33.94 Lon: 147.20 Height: 257.0 m
Data from the previous 72 hours. | See also: Recent months at West Wyalong
Date/Time
EDT
Temp
°C
App
Temp
°C
Dew
Point
°C
Rel
Hum
%
Delta-T
°C
Wind Press
QNH
hPa
Press
MSL
hPa
Rain since
9am
mm
Dir  Spd
km/h
Gust
km/h
Spd
kts
Gust
kts
14/08:00am 19.5 15.9 8.5 49 5.8 SW 17 24 9 13 1014.3 1013.1 0.0
14/07:30am 18.6 15.2 7.7 49 5.6 SW 15 20 8 11 1013.9 1012.7 0.0
14/07:00am 17.9 14.8 7.3 50 5.4 SW 13 19 7 10 1013.6 1012.4 0.0
14/06:30am 16.9 14.4 6.7 51 5.1 SW 9 13 5 7 1013.5 1012.3 0.0
14/06:00am 16.6 13.2 6.1 50 5.2 SW 13 17 7 9 1013.3 1012.1 0.0
14/05:30am 16.7 12.7 5.0 46 5.6 SW 15 17 8 9 1013.1 1011.9 0.0
14/05:00am 16.7 12.9 3.7 42 6.1 SW 13 15 7 8 1013.1 1011.9 0.0
14/04:30am 17.1 13.5 3.1 39 6.5 SW 11 15 6 8 1012.7 1011.5 0.0
14/04:00am 17.7 13.6 2.5 36 7.0 SW 13 17 7 9 1012.7 1011.5 0.0
14/03:30am 17.6 13.3 1.2 33 7.4 SW 13 13 7 7 1013.0 1011.7 0.0
14/03:00am 18.2 14.3 1.3 32 7.7 WSW 11 15 6 8 1013.3 1012.1 0.0
14/02:30am 18.3 14.4 0.9 31 7.8 SW 11 13 6 7 1013.4 1012.2 0.0
14/02:00am 18.5 14.5 0.6 30 8.0 SW 11 13 6 7 1013.7 1012.5 0.0
14/01:30am 19.1 15.5 0.7 29 8.3 WSW 9 13 5 7 1013.7 1012.5 0.0
14/01:00am 19.6 15.6 0.6 28 8.6 WSW 11 13 6 7 1014.0 1012.8 0.0
14/12:30am 19.8 16.2 0.8 28 8.6 SSW 9 11 5 6 1014.2 1013.0 0.0
14/12:00am 20.6 16.6 0.4 26 9.2 SSW 11 15 6 8 1014.3 1013.1 0.0
 
Date/Time
EDT
Temp
°C
App
Temp
°C
Dew
Point
°C
Rel
Hum
%
Delta-T
°C
Wind Press
QNH
hPa
Press
MSL
hPa
Rain since
9am
mm
Dir  Spd
km/h
Gust
km/h
Spd
kts
Gust
kts
13/11:30pm 21.5 16.4 0.7 25 9.6 SSW 17 22 9 12 1014.2 1013.0 0.0
13/11:00pm 21.9 16.8 1.0 25 9.7 SSW 17 20 9 11 1014.1 1012.9 0.0
13/10:30pm 22.6 17.2 1.0 24 10.1 SSW 19 24 10 13 1014.0 1012.8 0.0
13/10:00pm 23.1 17.5 0.9 23 10.4 SSW 20 30 11 16 1013.8 1012.6 0.0
13/09:30pm 23.7 18.2 0.7 22 10.8 SSW 19 26 10 14 1013.6 1012.4 0.0
13/09:00pm 24.1 18.9 -0.2 20 11.2 SSW 17 28 9 15 1013.3 1012.1 0.0
13/08:30pm 24.8 18.6 -0.4 19 11.6 SW 22 32 12 17 1012.8 1011.6 0.0
13/08:00pm 25.6 18.8 -2.1 16 12.5 SW 24 35 13 19 1012.7 1011.5 0.0
13/07:30pm 26.4 19.4 -3.2 14 13.1 SW 24 33 13 18 1012.5 1011.3 0.0
13/07:00pm 26.7 19.6 -4.0 13 13.5 SW 24 39 13 21 1012.2 1011.0 0.0
13/06:30pm 27.8 20.0 -4.2 12 14.1 SW 28 41 15 22 1011.9 1010.7 0.0
13/06:00pm 28.1 20.8 -6.3 10 14.7 SW 24 39 13 21 1012.1 1010.9 0.0
13/05:30pm 28.3 19.4 -7.6 9 15.0 WSW 32 41 17 22 1012.1 1010.9 0.0
13/05:00pm 28.4 20.2 -7.5 9 15.0 SSW 28 39 15 21 1012.2 1011.0 0.0
13/04:30pm 29.0 20.9 -7.0 9 15.3 SW 28 39 15 21 1012.3 1011.1 0.0
13/04:00pm 28.1 19.9 -7.7 9 14.9 WSW 28 39 15 21 1012.4 1011.2 0.0
13/03:30pm 27.6 19.4 -8.1 9 14.7 WSW 28 41 15 22 1013.1 1011.9 0.0
13/03:00pm 27.7 20.4 -6.6 10 14.5 SW 24 35 13 19 1013.2 1012.0 0.0
13/02:30pm 26.8 19.4 -7.3 10 14.1 SW 24 35 13 19 1013.5 1012.3 0.0
13/02:00pm 27.1 20.3 -4.7 12 13.8 SW 22 32 12 17 1013.9 1012.7 0.0
13/01:30pm 25.7 19.2 -2.8 15 12.7 SW 22 33 12 18 1014.3 1013.1 0.0
13/01:00pm 25.8 18.8 -3.7 14 12.9 SSW 24 35 13 19 1014.6 1013.4 0.0
13/12:30pm 25.4 18.6 -2.2 16 12.4 SSW 24 32 13 17 1014.8 1013.6 0.0
13/12:00pm 23.7 17.3 -2.0 18 11.4 SSW 22 32 12 17 1015.0 1013.8 0.0
13/11:30am 21.8 15.7 0.4 24 9.8 SW 22 30 12 16 1015.2 1014.0 0.0
13/11:00am 21.7 16.2 1.9 27 9.3 SW 20 28 11 15 1015.3 1014.1 0.0
13/10:30am 20.3 14.6 2.6 31 8.4 SW 22 32 12 17 1015.3 1014.1 0.0
13/10:00am 18.9 14.0 3.9 37 7.2 SW 19 30 10 16 1015.4 1014.2 0.0
13/09:30am 17.9 13.1 4.5 41 6.5 SSW 19 26 10 14 1015.7 1014.5 0.0
13/09:00am 16.7 11.7 4.7 45 5.8 SSW 20 30 11 16 1015.9 1014.7 0.0
13/08:30am 15.9 10.9 4.6 47 5.4 SSW 20 28 11 15 1015.6 1014.4 0.0
13/08:00am 15.4 10.4 4.5 48 5.2 SSW 20 28 11 15 1015.5 1014.3 0.0
13/07:30am 14.3 8.8 4.0 50 4.8 SSW 22 30 12 16 1015.5 1014.3 0.0
13/07:00am 13.8 9.6 3.6 50 4.7 SSW 15 20 8 11 1015.4 1014.2 0.0
13/06:30am 13.2 8.9 3.0 50 4.6 SW 15 20 8 11 1015.2 1014.0 0.0
13/06:00am 12.8 8.7 2.4 49 4.6 SW 13 17 7 9 1014.9 1013.7 0.0
13/05:30am 12.8 8.6 1.8 47 4.8 SW 13 17 7 9 1014.9 1013.7 0.0
13/05:00am 13.5 9.8 2.1 46 5.0 SSW 11 15 6 8 1015.1 1013.9 0.0
13/04:30am 14.1 10.3 2.0 44 5.4 SSW 11 17 6 9 1015.0 1013.8 0.0
13/04:00am 14.2 10.0 1.8 43 5.5 SSW 13 19 7 10 1015.1 1013.9 0.0
13/03:30am 15.0 10.0 1.5 40 6.0 SSW 17 20 9 11 1015.3 1014.1 0.0
13/03:00am 15.6 10.6 1.4 38 6.3 SSW 17 24 9 13 1015.4 1014.2 0.0
13/02:30am 16.3 11.0 1.6 37 6.6 SSW 19 24 10 13 1015.4 1014.2 0.0
13/02:00am 16.7 12.1 1.6 36 6.8 SSW 15 20 8 11 1015.5 1014.3 0.0
13/01:30am 17.6 12.3 2.0 35 7.1 SSW 19 24 10 13 1015.7 1014.5 0.0
13/01:00am 18.6 13.5 2.9 35 7.4 SSW 19 26 10 14 1015.9 1014.7 0.0
13/12:30am 19.3 14.0 3.1 34 7.7 SSW 20 28 11 15 1015.8 1014.6 0.0
13/12:00am 20.1 14.9 3.3 33 8.0 SSW 20 32 11 17 1015.9 1014.7 0.0
 
Date/Time
EDT
Temp
°C
App
Temp
°C
Dew
Point
°C
Rel
Hum
%
Delta-T
°C
Wind Press
QNH
hPa
Press
MSL
hPa
Rain since
9am
mm
Dir  Spd
km/h
Gust
km/h
Spd
kts
Gust
kts
12/11:30pm 20.9 14.9 3.2 31 8.5 SSW 24 37 13 20 1015.7 1014.5 0.0
12/11:00pm 21.8 15.6 2.0 27 9.3 SSW 24 32 13 17 1015.4 1014.2 0.0
12/10:30pm 22.1 17.1 -1.2 21 10.4 SSW 15 19 8 10 1014.9 1013.7 0.0
12/10:00pm 22.9 17.8 -1.9 19 11.0 S 15 20 8 11 1014.6 1013.4 0.0
12/09:30pm 23.7 18.5 -2.8 17 11.6 SSW 15 19 8 10 1014.6 1013.4 0.0
12/09:00pm 24.4 18.4 -3.0 16 12.0 SSW 19 26 10 14 1014.4 1013.2 0.0
12/08:30pm 25.2 18.2 -3.2 15 12.5 SSW 24 33 13 18 1014.0 1012.8 0.0
12/08:00pm 26.3 18.6 -3.3 14 13.1 SSW 28 35 15 19 1013.4 1012.2 0.0
12/07:30pm 27.3 19.8 -4.6 12 13.9 SW 26 35 14 19 1013.2 1012.0 0.0
12/07:00pm 28.3 20.1 -3.8 12 14.3 WSW 30 39 16 21 1012.5 1011.3 0.0
12/06:30pm 28.7 20.9 -3.5 12 14.5 SSW 28 41 15 22 1012.2 1011.0 0.0
12/06:00pm 29.1 22.3 -2.1 13 14.5 SW 24 39 13 21 1011.9 1010.7 0.0
12/05:30pm 29.4 21.8 -1.9 13 14.6 SW 28 37 15 20 1011.8 1010.6 0.0
12/05:00pm 29.9 21.6 -1.5 13 14.8 SW 32 43 17 23 1011.9 1010.7 0.0
12/04:30pm 29.6 22.2 -0.7 14 14.4 SSW 28 39 15 21 1011.8 1010.6 0.0
12/04:00pm 29.5 22.1 -0.8 14 14.4 SSW 28 54 15 29 1011.9 1010.7 0.0
12/03:55pm 30.1 22.8 -0.3 14 14.6 SSW 28 54 15 29 1012.0 1010.8 0.0
12/03:30pm 29.6 22.3 0.2 15 14.2 SSW 28 39 15 21 1012.1 1010.9 0.0
12/03:15pm 30.3 23.1 0.8 15 14.5 SSW 28 46 15 25 1012.2 1011.0 0.0
12/03:00pm 29.7 23.2 0.3 15 14.3 SSW 24 39 13 21 1012.2 1011.0 0.0
12/02:30pm 29.2 21.9 -0.1 15 14.1 SW 28 46 15 25 1012.4 1011.2 0.0
12/02:11pm 29.7 22.4 0.3 15 14.3 SSW 28 52 15 28 1012.5 1011.3 0.0
12/02:00pm 28.4 21.4 1.8 18 13.1 SW 28 41 15 22 1012.6 1011.4 0.0
12/01:30pm 29.0 22.4 2.3 18 13.3 SSW 26 37 14 20 1013.0 1011.7 0.0
12/01:00pm 27.4 21.0 3.2 21 12.2 SSW 26 39 14 21 1013.5 1012.3 0.0
12/12:30pm 25.9 19.9 3.2 23 11.3 SSW 24 44 13 24 1013.9 1012.7 0.0
12/12:00pm 25.7 20.2 5.8 28 10.4 SSW 24 37 13 20 1014.3 1013.1 0.0
12/11:30am 25.7 20.9 7.3 31 9.8 SSW 22 32 12 17 1014.5 1013.3 0.0
12/11:00am 23.9 18.3 7.1 34 8.8 SW 26 35 14 19 1014.6 1013.4 0.0
12/10:30am 22.6 17.9 7.6 38 7.9 SW 22 30 12 16 1014.6 1013.4 0.0
12/10:00am 22.1 18.6 8.6 42 7.2 SW 17 24 9 13 1014.5 1013.3 0.0
12/09:30am 20.0 16.8 8.4 47 6.1 SSW 15 22 8 12 1014.6 1013.4 0.0
12/09:00am 18.6 15.7 8.3 51 5.4 SW 13 17 7 9 1014.5 1013.3 0.0
12/08:30am 18.5 14.9 8.2 51 5.4 SW 17 20 9 11 1014.5 1013.3 0.0
12/08:00am 17.9 14.6 7.9 52 5.2 SSW 15 20 8 11 1014.0 1012.8 0.0
12/07:30am 17.3 13.7 8.2 55 4.7 SSW 17 20 9 11 1013.9 1012.7 0.0
12/07:00am 16.8 13.5 8.0 56 4.5 SSW 15 20 8 11 1013.6 1012.4 0.0
12/06:30am 16.4 13.3 7.3 55 4.6 SSW 13 17 7 9 1013.4 1012.2 0.0
12/06:00am 15.9 13.0 6.6 54 4.6 S 11 11 6 6 1013.4 1012.2 0.0
12/05:30am 16.1 13.5 6.3 52 4.8 SSW 9 13 5 7 1013.1 1011.9 0.0
12/05:00am 16.7 14.4 5.9 49 5.3 SSW 7 11 4 6 1012.8 1011.6 0.0
12/04:30am 17.5 14.1 6.1 47 5.7 SW 13 15 7 8 1012.8 1011.6 0.0
12/04:00am 18.2 14.5 6.1 45 6.0 SW 15 19 8 10 1012.7 1011.5 0.0
12/03:30am 18.6 15.1 3.6 37 7.1 SW 11 13 6 7 1012.5 1011.3 0.0
12/03:00am 19.2 15.2 2.6 33 7.8 SW 13 17 7 9 1012.5 1011.3 0.0
12/02:30am 19.8 15.7 2.2 31 8.2 SW 13 17 7 9 1012.5 1011.3 0.0
12/02:00am 20.3 16.5 1.7 29 8.6 SW 11 15 6 8 1012.8 1011.6 0.0
12/01:30am 20.9 17.4 1.2 27 9.1 SSW 9 13 5 7 1013.0 1011.7 0.0
12/01:00am 22.1 17.4 1.2 25 9.7 SSW 15 20 8 11 1013.1 1011.9 0.0
12/12:30am 22.9 17.3 1.3 24 10.2 SSW 20 28 11 15 1013.2 1012.0 0.0
12/12:00am 23.6 17.6 -1.3 19 11.2 SSW 20 28 11 15 1013.3 1012.1 0.0
 
Date/Time
EDT
Temp
°C
App
Temp
°C
Dew
Point
°C
Rel
Hum
%
Delta-T
°C
Wind Press
QNH
hPa
Press
MSL
hPa
Rain since
9am
mm
Dir  Spd
km/h
Gust
km/h
Spd
kts
Gust
kts
11/11:30pm 23.0 19.1 -1.8 19 11.0 SW 9 17 5 9 1013.2 1012.0 0.0
11/11:00pm 23.4 19.3 -3.0 17 11.5 WSW 9 11 5 6 1013.0 1011.7 0.0
11/10:30pm 24.2 19.3 -3.2 16 11.9 SW 13 15 7 8 1012.8 1011.6 0.0
11/10:00pm 25.8 20.5 -3.7 14 12.9 SW 15 19 8 10 1012.6 1011.4 0.0
11/09:30pm 26.5 21.1 -4.1 13 13.4 SW 15 24 8 13 1012.3 1011.1 0.0
11/09:00pm 27.6 21.5 -4.3 12 14.0 SW 19 22 10 12 1012.1 1010.9 0.0
11/08:30pm 28.5 22.2 -3.6 12 14.4 SW 20 30 11 16 1011.8 1010.6 0.0
11/08:00pm 29.5 22.7 -5.3 10 15.3 SW 22 30 12 16 1011.5 1010.3 0.0
11/07:30pm 30.5 23.2 -5.9 9 15.9 SW 24 32 13 17 1011.3 1010.1 0.0
11/07:00pm 31.6 23.7 -5.1 9 16.5 SW 28 39 15 21 1011.0 1009.8 0.0
11/06:30pm 32.0 24.1 -4.8 9 16.6 WSW 28 35 15 19 1010.8 1009.6 0.0
11/06:00pm 32.4 24.9 -4.5 9 16.8 SW 26 33 14 18 1010.7 1009.5 0.0
11/05:30pm 33.1 25.1 -5.5 8 17.4 WSW 28 35 15 19 1010.8 1009.6 0.0
11/05:00pm 33.3 25.7 -5.4 8 17.5 WSW 26 39 14 21 1011.0 1009.8 0.0
11/04:36pm 33.6 25.3 -5.2 8 17.6 WSW 30 50 16 27 1011.0 1009.8 0.0
11/04:30pm 33.5 25.3 -3.7 9 17.3 WSW 30 41 16 22 1011.1 1009.9 0.0
11/04:00pm 33.3 25.7 -5.4 8 17.5 WSW 26 39 14 21 1011.4 1010.2 0.0
11/03:30pm 33.1 25.1 -5.5 8 17.4 WSW 28 37 15 20 1011.6 1010.4 0.0
11/03:00pm 33.3 26.6 -3.8 9 17.2 SW 22 30 12 16 1011.8 1010.6 0.0
11/02:30pm 32.7 26.0 -4.3 9 16.9 SW 22 30 12 16 1012.1 1010.9 0.0
11/02:00pm 32.4 26.0 -4.5 9 16.8 WSW 20 28 11 15 1012.3 1011.1 0.0
11/01:30pm 32.1 26.2 -2.0 11 16.2 W 19 28 10 15 1012.6 1011.4 0.0
11/01:00pm 31.6 26.4 -2.4 11 16.0 WSW 15 26 8 14 1012.8 1011.6 0.0
11/12:30pm 31.5 27.0 -0.2 13 15.4 WSW 13 22 7 12 1013.1 1011.9 0.0
11/12:00pm 30.5 27.2 0.0 14 14.8 SW 7 15 4 8 1013.3 1012.1 0.0
11/11:30am 29.6 25.7 -1.7 13 14.6 WSW 9 19 5 10 1013.5 1012.3 0.0
11/11:00am 28.7 25.8 2.8 19 13.0 W 7 13 4 7 1013.6 1012.4 0.0
11/10:30am 27.1 23.4 0.0 17 12.8 SSW 9 15 5 8 1013.9 1012.7 0.0
11/10:00am 25.1 22.8 7.3 32 9.5 S 9 15 5 8 1014.0 1012.8 0.0
11/09:30am 23.8 21.8 8.6 38 8.2 SE 9 15 5 8 1014.2 1013.0 0.0
11/09:00am 22.5 20.4 8.2 40 7.6 SSE 9 13 5 7 1014.4 1013.2 0.0
11/08:30am 21.6 19.6 8.5 43 7.0 SE 9 13 5 7 1014.5 1013.3 0.0

Other formats

Comma delimited format used in spreadsheet applications
http://www.bom.gov.au/fwo/IDN60801/IDN60801.95709.axf

JavaScript Object Notation format (JSON) in row-major order
http://www.bom.gov.au/fwo/IDN60801/IDN60801.95709.json

Data quality

Most of these data are generated automatically and are frequently updated. Quality checks on data are not normally performed. It is possible for incorrect values to appear. Refer to information at About Latest Weather Observations and please check the disclaimer before using these data.